sensor_id;sensor_type;location;lat;lon;timestamp;temperature;humidity
64833;HTU21D;51290;45.060;38.948;2023-06-22T05:44:32;26.07;48.95
64833;HTU21D;51290;45.060;38.948;2023-06-22T05:46:59;25.96;49.42
64833;HTU21D;51290;45.060;38.948;2023-06-22T05:49:25;26.01;49.71
64833;HTU21D;51290;45.060;38.948;2023-06-22T05:51:58;26.10;49.96
64833;HTU21D;51290;45.060;38.948;2023-06-22T05:54:27;26.22;49.95
64833;HTU21D;51290;45.060;38.948;2023-06-22T05:56:53;26.31;49.70
64833;HTU21D;51290;45.060;38.948;2023-06-22T05:59:19;26.25;49.56
64833;HTU21D;51290;45.060;38.948;2023-06-22T06:01:45;26.16;49.64
64833;HTU21D;51290;45.060;38.948;2023-06-22T06:04:17;26.03;49.85
64833;HTU21D;51290;45.060;38.948;2023-06-22T06:06:45;25.95;50.02
64833;HTU21D;51290;45.060;38.948;2023-06-22T06:09:16;25.95;50.13
64833;HTU21D;51290;45.060;38.948;2023-06-22T06:11:42;25.90;50.21
64833;HTU21D;51290;45.060;38.948;2023-06-22T06:14:08;25.88;50.37
64833;HTU21D;51290;45.060;38.948;2023-06-22T06:16:34;25.93;50.48
64833;HTU21D;51290;45.060;38.948;2023-06-22T06:19:00;26.02;50.52
64833;HTU21D;51290;45.060;38.948;2023-06-22T06:21:26;26.07;50.40
64833;HTU21D;51290;45.060;38.948;2023-06-22T06:23:52;26.08;50.42
64833;HTU21D;51290;45.060;38.948;2023-06-22T06:26:19;26.11;50.40
64833;HTU21D;51290;45.060;38.948;2023-06-22T06:28:57;26.07;50.38
64833;HTU21D;51290;45.060;38.948;2023-06-22T06:31:23;26.03;50.49
64833;HTU21D;51290;45.060;38.948;2023-06-22T06:33:50;25.98;50.66
64833;HTU21D;51290;45.060;38.948;2023-06-22T06:36:17;25.92;50.73
64833;HTU21D;51290;45.060;38.948;2023-06-22T06:38:43;25.92;50.80
64833;HTU21D;51290;45.060;38.948;2023-06-22T06:41:09;25.92;50.81
64833;HTU21D;51290;45.060;38.948;2023-06-22T06:43:35;25.98;51.02
64833;HTU21D;51290;45.060;38.948;2023-06-22T06:46:01;26.10;51.17
64833;HTU21D;51290;45.060;38.948;2023-06-22T06:48:29;26.22;51.14
64833;HTU21D;51290;45.060;38.948;2023-06-22T06:50:55;26.24;51.08
64833;HTU21D;51290;45.060;38.948;2023-06-22T06:53:21;26.23;51.11
64833;HTU21D;51290;45.060;38.948;2023-06-22T06:55:47;26.20;51.16
64833;HTU21D;51290;45.060;38.948;2023-06-22T06:58:13;26.19;51.14
64833;HTU21D;51290;45.060;38.948;2023-06-22T07:00:39;26.18;51.10
64833;HTU21D;51290;45.060;38.948;2023-06-22T07:03:05;26.15;51.08
64833;HTU21D;51290;45.060;38.948;2023-06-22T07:05:32;26.06;51.14
64833;HTU21D;51290;45.060;38.948;2023-06-22T07:07:58;26.01;51.27
64833;HTU21D;51290;45.060;38.948;2023-06-22T07:10:25;26.02;51.40
64833;HTU21D;51290;45.060;38.948;2023-06-22T07:12:51;26.04;51.34
64833;HTU21D;51290;45.060;38.948;2023-06-22T07:15:17;26.08;51.22
64833;HTU21D;51290;45.060;38.948;2023-06-22T07:17:43;26.09;51.17
64833;HTU21D;51290;45.060;38.948;2023-06-22T07:20:09;26.07;50.94
64833;HTU21D;51290;45.060;38.948;2023-06-22T07:22:42;26.02;50.77
64833;HTU21D;51290;45.060;38.948;2023-06-22T07:25:08;26.01;50.72
64833;HTU21D;51290;45.060;38.948;2023-06-22T07:27:39;26.01;50.65
64833;HTU21D;51290;45.060;38.948;2023-06-22T07:30:09;26.03;50.78
64833;HTU21D;51290;45.060;38.948;2023-06-22T07:32:36;26.07;50.71
64833;HTU21D;51290;45.060;38.948;2023-06-22T07:35:02;26.09;50.32
64833;HTU21D;51290;45.060;38.948;2023-06-22T07:37:28;26.08;50.08
64833;HTU21D;51290;45.060;38.948;2023-06-22T07:39:55;26.06;49.69
64833;HTU21D;51290;45.060;38.948;2023-06-22T07:42:25;25.96;49.63
64833;HTU21D;51290;45.060;38.948;2023-06-22T07:44:51;25.89;49.78
64833;HTU21D;51290;45.060;38.948;2023-06-22T07:47:17;25.86;49.44
64833;HTU21D;51290;45.060;38.948;2023-06-22T07:49:51;25.84;49.38
64833;HTU21D;51290;45.060;38.948;2023-06-22T07:52:17;25.86;49.25
64833;HTU21D;51290;45.060;38.948;2023-06-22T07:54:43;25.88;49.29
64833;HTU21D;51290;45.060;38.948;2023-06-22T07:57:09;25.96;49.21
64833;HTU21D;51290;45.060;38.948;2023-06-22T07:59:36;26.04;48.70
64833;HTU21D;51290;45.060;38.948;2023-06-22T08:02:02;26.09;48.27
64833;HTU21D;51290;45.060;38.948;2023-06-22T08:04:29;26.09;48.24
64833;HTU21D;51290;45.060;38.948;2023-06-22T08:06:56;26.10;47.89
64833;HTU21D;51290;45.060;38.948;2023-06-22T08:09:22;26.07;47.70
64833;HTU21D;51290;45.060;38.948;2023-06-22T08:11:48;26.09;47.76
64833;HTU21D;51290;45.060;38.948;2023-06-22T08:14:14;26.18;47.77
64833;HTU21D;51290;45.060;38.948;2023-06-22T08:16:41;26.26;47.47
64833;HTU21D;51290;45.060;38.948;2023-06-22T08:19:08;26.31;46.93
64833;HTU21D;51290;45.060;38.948;2023-06-22T08:21:35;26.27;46.40
64833;HTU21D;51290;45.060;38.948;2023-06-22T08:24:01;26.23;45.80
64833;HTU21D;51290;45.060;38.948;2023-06-22T08:26:28;26.19;46.07
64833;HTU21D;51290;45.060;38.948;2023-06-22T08:28:55;26.19;45.74
64833;HTU21D;51290;45.060;38.948;2023-06-22T08:31:21;26.17;45.06
64833;HTU21D;51290;45.060;38.948;2023-06-22T08:33:47;26.15;45.44
64833;HTU21D;51290;45.060;38.948;2023-06-22T08:36:13;26.17;45.70
64833;HTU21D;51290;45.060;38.948;2023-06-22T08:38:39;26.21;45.52
64833;HTU21D;51290;45.060;38.948;2023-06-22T08:41:05;26.26;45.46
64833;HTU21D;51290;45.060;38.948;2023-06-22T08:43:31;26.31;45.22
64833;HTU21D;51290;45.060;38.948;2023-06-22T08:45:57;26.36;45.32
64833;HTU21D;51290;45.060;38.948;2023-06-22T08:48:23;26.40;45.12
64833;HTU21D;51290;45.060;38.948;2023-06-22T08:50:49;26.47;45.18
64833;HTU21D;51290;45.060;38.948;2023-06-22T08:53:15;26.53;44.99
64833;HTU21D;51290;45.060;38.948;2023-06-22T08:55:41;26.55;44.91
64833;HTU21D;51290;45.060;38.948;2023-06-22T08:58:07;26.61;44.22
64833;HTU21D;51290;45.060;38.948;2023-06-22T09:00:33;26.63;44.27
64833;HTU21D;51290;45.060;38.948;2023-06-22T09:03:00;26.64;43.95
64833;HTU21D;51290;45.060;38.948;2023-06-22T09:05:26;26.60;43.90
64833;HTU21D;51290;45.060;38.948;2023-06-22T09:07:52;26.56;43.84
64833;HTU21D;51290;45.060;38.948;2023-06-22T09:10:20;26.53;44.00
64833;HTU21D;51290;45.060;38.948;2023-06-22T09:12:46;26.55;44.29
64833;HTU21D;51290;45.060;38.948;2023-06-22T09:15:12;26.63;44.30
64833;HTU21D;51290;45.060;38.948;2023-06-22T09:17:40;26.73;44.13
64833;HTU21D;51290;45.060;38.948;2023-06-22T09:20:07;26.84;44.13
64833;HTU21D;51290;45.060;38.948;2023-06-22T09:22:36;26.95;43.92
64833;HTU21D;51290;45.060;38.948;2023-06-22T09:25:02;27.01;43.70
64833;HTU21D;51290;45.060;38.948;2023-06-22T09:27:29;27.05;43.39
64833;HTU21D;51290;45.060;38.948;2023-06-22T09:29:55;27.04;43.42
64833;HTU21D;51290;45.060;38.948;2023-06-22T09:32:21;27.06;43.32
64833;HTU21D;51290;45.060;38.948;2023-06-22T09:34:47;27.06;43.37
64833;HTU21D;51290;45.060;38.948;2023-06-22T09:37:13;27.09;43.20
64833;HTU21D;51290;45.060;38.948;2023-06-22T09:39:39;27.11;42.86
64833;HTU21D;51290;45.060;38.948;2023-06-22T09:42:05;27.14;42.73
64833;HTU21D;51290;45.060;38.948;2023-06-22T09:44:32;27.14;42.10
64833;HTU21D;51290;45.060;38.948;2023-06-22T09:46:58;27.16;42.34
64833;HTU21D;51290;45.060;38.948;2023-06-22T09:49:24;27.16;42.26
64833;HTU21D;51290;45.060;38.948;2023-06-22T09:51:51;27.21;42.23
64833;HTU21D;51290;45.060;38.948;2023-06-22T09:54:18;27.22;42.04
64833;HTU21D;51290;45.060;38.948;2023-06-22T09:56:44;27.25;41.88
64833;HTU21D;51290;45.060;38.948;2023-06-22T09:59:10;27.28;41.74
64833;HTU21D;51290;45.060;38.948;2023-06-22T10:01:36;27.28;41.72
64833;HTU21D;51290;45.060;38.948;2023-06-22T10:04:02;27.30;41.41
64833;HTU21D;51290;45.060;38.948;2023-06-22T10:06:28;27.29;41.14
64833;HTU21D;51290;45.060;38.948;2023-06-22T10:08:54;27.27;41.09
64833;HTU21D;51290;45.060;38.948;2023-06-22T10:11:20;27.30;41.12
64833;HTU21D;51290;45.060;38.948;2023-06-22T10:13:52;27.39;40.96
64833;HTU21D;51290;45.060;38.948;2023-06-22T10:16:18;27.44;40.51
64833;HTU21D;51290;45.060;38.948;2023-06-22T10:18:44;27.47;40.30
64833;HTU21D;51290;45.060;38.948;2023-06-22T10:21:10;27.49;40.15
64833;HTU21D;51290;45.060;38.948;2023-06-22T10:23:36;27.47;40.23
64833;HTU21D;51290;45.060;38.948;2023-06-22T10:26:02;27.55;40.43
64833;HTU21D;51290;45.060;38.948;2023-06-22T10:28:28;27.64;40.18
64833;HTU21D;51290;45.060;38.948;2023-06-22T10:30:54;27.67;39.63
64833;HTU21D;51290;45.060;38.948;2023-06-22T10:33:20;27.64;39.66
64833;HTU21D;51290;45.060;38.948;2023-06-22T10:35:46;27.61;39.29
64833;HTU21D;51290;45.060;38.948;2023-06-22T10:38:12;27.57;39.36
64833;HTU21D;51290;45.060;38.948;2023-06-22T10:40:38;27.55;39.35
64833;HTU21D;51290;45.060;38.948;2023-06-22T10:43:05;27.54;39.42
64833;HTU21D;51290;45.060;38.948;2023-06-22T10:45:31;27.60;39.17
64833;HTU21D;51290;45.060;38.948;2023-06-22T10:47:57;27.68;39.17
64833;HTU21D;51290;45.060;38.948;2023-06-22T10:50:24;27.67;38.76
64833;HTU21D;51290;45.060;38.948;2023-06-22T10:52:51;27.69;38.03
64833;HTU21D;51290;45.060;38.948;2023-06-22T10:55:17;27.73;38.47
64833;HTU21D;51290;45.060;38.948;2023-06-22T10:57:43;27.81;38.35
64833;HTU21D;51290;45.060;38.948;2023-06-22T11:00:13;27.83;37.91
64833;HTU21D;51290;45.060;38.948;2023-06-22T11:02:40;27.80;37.82
64833;HTU21D;51290;45.060;38.948;2023-06-22T11:05:06;27.73;37.39
64833;HTU21D;51290;45.060;38.948;2023-06-22T11:07:33;27.75;37.70
64833;HTU21D;51290;45.060;38.948;2023-06-22T11:09:59;27.72;37.43
64833;HTU21D;51290;45.060;38.948;2023-06-22T11:12:27;27.70;36.94
64833;HTU21D;51290;45.060;38.948;2023-06-22T11:14:53;27.67;37.11
64833;HTU21D;51290;45.060;38.948;2023-06-22T11:17:21;27.65;37.05
64833;HTU21D;51290;45.060;38.948;2023-06-22T11:19:47;27.65;37.24
64833;HTU21D;51290;45.060;38.948;2023-06-22T11:22:14;27.68;37.25
64833;HTU21D;51290;45.060;38.948;2023-06-22T11:24:40;27.68;37.11
64833;HTU21D;51290;45.060;38.948;2023-06-22T11:27:06;27.65;37.32
64833;HTU21D;51290;45.060;38.948;2023-06-22T11:29:32;27.68;37.43
64833;HTU21D;51290;45.060;38.948;2023-06-22T11:31:58;27.72;37.23
64833;HTU21D;51290;45.060;38.948;2023-06-22T11:34:24;27.76;37.15
64833;HTU21D;51290;45.060;38.948;2023-06-22T11:36:50;27.80;36.53
64833;HTU21D;51290;45.060;38.948;2023-06-22T11:39:16;27.81;36.25
64833;HTU21D;51290;45.060;38.948;2023-06-22T11:41:42;27.84;35.73
64833;HTU21D;51290;45.060;38.948;2023-06-22T11:44:08;27.87;35.65
64833;HTU21D;51290;45.060;38.948;2023-06-22T11:46:34;27.86;35.60
64833;HTU21D;51290;45.060;38.948;2023-06-22T11:49:02;27.83;35.18
64833;HTU21D;51290;45.060;38.948;2023-06-22T11:51:28;27.81;35.50
64833;HTU21D;51290;45.060;38.948;2023-06-22T11:53:57;27.78;35.72
64833;HTU21D;51290;45.060;38.948;2023-06-22T11:56:24;27.70;35.97
64833;HTU21D;51290;45.060;38.948;2023-06-22T11:58:50;27.66;36.29
64833;HTU21D;51290;45.060;38.948;2023-06-22T12:01:16;27.65;36.34
64833;HTU21D;51290;45.060;38.948;2023-06-22T12:03:44;27.59;36.30
64833;HTU21D;51290;45.060;38.948;2023-06-22T12:06:10;27.55;36.47
64833;HTU21D;51290;45.060;38.948;2023-06-22T12:08:37;27.49;36.50
64833;HTU21D;51290;45.060;38.948;2023-06-22T12:11:08;27.47;36.66
64833;HTU21D;51290;45.060;38.948;2023-06-22T12:13:34;27.50;36.68
64833;HTU21D;51290;45.060;38.948;2023-06-22T12:16:00;27.47;36.65
64833;HTU21D;51290;45.060;38.948;2023-06-22T12:18:26;27.47;36.51
64833;HTU21D;51290;45.060;38.948;2023-06-22T12:20:52;27.44;36.44
64833;HTU21D;51290;45.060;38.948;2023-06-22T12:23:18;27.46;36.47
64833;HTU21D;51290;45.060;38.948;2023-06-22T12:25:45;27.42;36.40
64833;HTU21D;51290;45.060;38.948;2023-06-22T12:28:11;27.38;36.05
64833;HTU21D;51290;45.060;38.948;2023-06-22T12:30:37;27.34;36.13
64833;HTU21D;51290;45.060;38.948;2023-06-22T12:33:03;27.34;36.07
64833;HTU21D;51290;45.060;38.948;2023-06-22T12:35:29;27.28;36.15
64833;HTU21D;51290;45.060;38.948;2023-06-22T12:37:55;27.24;36.04
64833;HTU21D;51290;45.060;38.948;2023-06-22T12:40:21;27.19;35.96
64833;HTU21D;51290;45.060;38.948;2023-06-22T12:42:47;27.21;36.15
64833;HTU21D;51290;45.060;38.948;2023-06-22T12:45:13;27.21;36.06
64833;HTU21D;51290;45.060;38.948;2023-06-22T12:47:40;27.19;36.08
64833;HTU21D;51290;45.060;38.948;2023-06-22T12:50:06;27.16;36.09
64833;HTU21D;51290;45.060;38.948;2023-06-22T12:52:32;27.16;36.42
64833;HTU21D;51290;45.060;38.948;2023-06-22T12:54:58;27.17;36.59
64833;HTU21D;51290;45.060;38.948;2023-06-22T12:57:25;27.28;36.69
64833;HTU21D;51290;45.060;38.948;2023-06-22T12:59:51;27.36;36.49
64833;HTU21D;51290;45.060;38.948;2023-06-22T13:02:17;27.38;36.05
64833;HTU21D;51290;45.060;38.948;2023-06-22T13:04:43;27.32;35.95
64833;HTU21D;51290;45.060;38.948;2023-06-22T13:07:09;27.34;36.22
64833;HTU21D;51290;45.060;38.948;2023-06-22T13:09:36;27.41;36.22
64833;HTU21D;51290;45.060;38.948;2023-06-22T13:12:02;27.41;35.81
64833;HTU21D;51290;45.060;38.948;2023-06-22T13:14:29;27.38;35.45
64833;HTU21D;51290;45.060;38.948;2023-06-22T13:16:55;27.34;35.67
64833;HTU21D;51290;45.060;38.948;2023-06-22T13:19:20;27.39;35.82
64833;HTU21D;51290;45.060;38.948;2023-06-22T13:21:47;27.37;35.98
64833;HTU21D;51290;45.060;38.948;2023-06-22T13:24:13;27.35;36.14
64833;HTU21D;51290;45.060;38.948;2023-06-22T13:26:39;27.34;36.28
64833;HTU21D;51290;45.060;38.948;2023-06-22T13:29:05;27.26;35.79
64833;HTU21D;51290;45.060;38.948;2023-06-22T13:31:31;27.20;35.72
64833;HTU21D;51290;45.060;38.948;2023-06-22T13:33:57;27.13;35.77
64833;HTU21D;51290;45.060;38.948;2023-06-22T13:36:23;27.06;35.63
64833;HTU21D;51290;45.060;38.948;2023-06-22T13:38:49;26.98;35.79
64833;HTU21D;51290;45.060;38.948;2023-06-22T13:41:15;26.92;35.81
64833;HTU21D;51290;45.060;38.948;2023-06-22T13:43:41;26.86;35.94
64833;HTU21D;51290;45.060;38.948;2023-06-22T13:46:07;26.84;36.02
64833;HTU21D;51290;45.060;38.948;2023-06-22T13:48:35;26.83;36.01
64833;HTU21D;51290;45.060;38.948;2023-06-22T13:51:02;26.81;35.87
64833;HTU21D;51290;45.060;38.948;2023-06-22T13:53:28;26.76;35.62
64833;HTU21D;51290;45.060;38.948;2023-06-22T13:55:54;26.73;35.69
64833;HTU21D;51290;45.060;38.948;2023-06-22T13:58:20;26.70;35.65
64833;HTU21D;51290;45.060;38.948;2023-06-22T14:00:46;26.69;35.75
64833;HTU21D;51290;45.060;38.948;2023-06-22T14:03:12;26.65;35.63
64833;HTU21D;51290;45.060;38.948;2023-06-22T14:05:42;26.63;35.47
64833;HTU21D;51290;45.060;38.948;2023-06-22T14:08:08;26.56;35.38
64833;HTU21D;51290;45.060;38.948;2023-06-22T14:10:34;26.53;35.38
64833;HTU21D;51290;45.060;38.948;2023-06-22T14:13:00;26.50;35.37
64833;HTU21D;51290;45.060;38.948;2023-06-22T14:15:26;26.48;35.31
64833;HTU21D;51290;45.060;38.948;2023-06-22T14:17:52;26.47;34.73
64833;HTU21D;51290;45.060;38.948;2023-06-22T14:20:18;26.45;34.87
64833;HTU21D;51290;45.060;38.948;2023-06-22T14:22:44;26.40;34.53
64833;HTU21D;51290;45.060;38.948;2023-06-22T14:25:10;26.36;34.45
64833;HTU21D;51290;45.060;38.948;2023-06-22T14:27:36;26.35;34.64
64833;HTU21D;51290;45.060;38.948;2023-06-22T14:30:03;26.33;34.34
64833;HTU21D;51290;45.060;38.948;2023-06-22T14:32:29;26.27;33.70
64833;HTU21D;51290;45.060;38.948;2023-06-22T14:34:57;26.24;33.78
64833;HTU21D;51290;45.060;38.948;2023-06-22T14:37:24;26.20;33.67
64833;HTU21D;51290;45.060;38.948;2023-06-22T14:39:50;26.19;33.87
64833;HTU21D;51290;45.060;38.948;2023-06-22T14:42:16;26.17;33.34
64833;HTU21D;51290;45.060;38.948;2023-06-22T14:44:41;26.16;33.73
64833;HTU21D;51290;45.060;38.948;2023-06-22T14:47:08;26.15;33.51
64833;HTU21D;51290;45.060;38.948;2023-06-22T14:49:34;26.16;33.81
64833;HTU21D;51290;45.060;38.948;2023-06-22T14:52:01;26.15;33.95
64833;HTU21D;51290;45.060;38.948;2023-06-22T14:54:27;26.15;33.88
64833;HTU21D;51290;45.060;38.948;2023-06-22T14:56:53;26.13;33.90
64833;HTU21D;51290;45.060;38.948;2023-06-22T14:59:19;26.12;33.92
64833;HTU21D;51290;45.060;38.948;2023-06-22T15:01:45;26.09;33.84
64833;HTU21D;51290;45.060;38.948;2023-06-22T15:04:11;26.06;33.86
64833;HTU21D;51290;45.060;38.948;2023-06-22T15:06:37;26.01;33.72
64833;HTU21D;51290;45.060;38.948;2023-06-22T15:09:03;25.95;33.79
64833;HTU21D;51290;45.060;38.948;2023-06-22T15:11:29;25.91;33.87
64833;HTU21D;51290;45.060;38.948;2023-06-22T15:13:58;25.86;33.88
64833;HTU21D;51290;45.060;38.948;2023-06-22T15:16:27;25.83;33.99
64833;HTU21D;51290;45.060;38.948;2023-06-22T15:18:53;25.79;34.10
64833;HTU21D;51290;45.060;38.948;2023-06-22T15:21:19;25.77;34.32
64833;HTU21D;51290;45.060;38.948;2023-06-22T15:23:45;25.75;34.34
64833;HTU21D;51290;45.060;38.948;2023-06-22T15:26:11;25.71;34.32
64833;HTU21D;51290;45.060;38.948;2023-06-22T15:28:39;25.67;34.45
64833;HTU21D;51290;45.060;38.948;2023-06-22T15:31:05;25.63;34.49
64833;HTU21D;51290;45.060;38.948;2023-06-22T15:33:31;25.58;34.31
64833;HTU21D;51290;45.060;38.948;2023-06-22T15:35:58;25.52;34.38
64833;HTU21D;51290;45.060;38.948;2023-06-22T15:38:28;25.47;34.25
64833;HTU21D;51290;45.060;38.948;2023-06-22T15:40:54;25.43;34.34
64833;HTU21D;51290;45.060;38.948;2023-06-22T15:43:20;25.36;34.33
64833;HTU21D;51290;45.060;38.948;2023-06-22T15:45:47;25.33;34.28
64833;HTU21D;51290;45.060;38.948;2023-06-22T15:48:15;25.27;34.50
64833;HTU21D;51290;45.060;38.948;2023-06-22T15:50:41;25.23;34.56
64833;HTU21D;51290;45.060;38.948;2023-06-22T15:53:07;25.17;34.50
64833;HTU21D;51290;45.060;38.948;2023-06-22T15:55:33;25.15;34.70
64833;HTU21D;51290;45.060;38.948;2023-06-22T15:58:00;25.10;34.77
64833;HTU21D;51290;45.060;38.948;2023-06-22T16:00:27;25.06;34.76
64833;HTU21D;51290;45.060;38.948;2023-06-22T16:02:53;25.02;34.89
64833;HTU21D;51290;45.060;38.948;2023-06-22T16:05:19;24.92;35.01
64833;HTU21D;51290;45.060;38.948;2023-06-22T16:07:45;24.88;35.08
64833;HTU21D;51290;45.060;38.948;2023-06-22T16:10:11;24.82;35.20
64833;HTU21D;51290;45.060;38.948;2023-06-22T16:12:42;24.76;35.34
64833;HTU21D;51290;45.060;38.948;2023-06-22T16:15:08;24.73;35.46
64833;HTU21D;51290;45.060;38.948;2023-06-22T16:17:34;24.65;35.56
64833;HTU21D;51290;45.060;38.948;2023-06-22T16:20:05;24.63;35.66
64833;HTU21D;51290;45.060;38.948;2023-06-22T16:22:32;24.61;35.76
64833;HTU21D;51290;45.060;38.948;2023-06-22T16:24:58;24.59;35.83
64833;HTU21D;51290;45.060;38.948;2023-06-22T16:27:24;24.57;35.95
64833;HTU21D;51290;45.060;38.948;2023-06-22T16:29:51;24.53;36.04
64833;HTU21D;51290;45.060;38.948;2023-06-22T16:32:17;24.48;36.17
64833;HTU21D;51290;45.060;38.948;2023-06-22T16:34:46;24.44;36.27
64833;HTU21D;51290;45.060;38.948;2023-06-22T16:37:12;24.40;36.40
64833;HTU21D;51290;45.060;38.948;2023-06-22T16:39:39;24.35;36.53
64833;HTU21D;51290;45.060;38.948;2023-06-22T16:42:05;24.34;36.60
64833;HTU21D;51290;45.060;38.948;2023-06-22T16:44:31;24.28;36.69
64833;HTU21D;51290;45.060;38.948;2023-06-22T16:46:58;24.24;36.84
64833;HTU21D;51290;45.060;38.948;2023-06-22T16:49:25;24.18;36.95
64833;HTU21D;51290;45.060;38.948;2023-06-22T16:51:51;24.13;37.10
64833;HTU21D;51290;45.060;38.948;2023-06-22T16:54:17;24.06;37.26
64833;HTU21D;51290;45.060;38.948;2023-06-22T16:56:46;24.04;37.40
64833;HTU21D;51290;45.060;38.948;2023-06-22T16:59:12;24.00;37.53
64833;HTU21D;51290;45.060;38.948;2023-06-22T17:01:52;23.94;37.65
64833;HTU21D;51290;45.060;38.948;2023-06-22T17:04:23;23.90;37.84
64833;HTU21D;51290;45.060;38.948;2023-06-22T17:07:17;23.83;37.95
64833;HTU21D;51290;45.060;38.948;2023-06-22T17:09:46;23.77;38.15
64833;HTU21D;51290;45.060;38.948;2023-06-22T17:12:16;23.70;38.27
64833;HTU21D;51290;45.060;38.948;2023-06-22T17:14:44;23.65;38.43
64833;HTU21D;51290;45.060;38.948;2023-06-22T17:17:12;23.58;38.49
64833;HTU21D;51290;45.060;38.948;2023-06-22T17:19:40;23.49;38.59
64833;HTU21D;51290;45.060;38.948;2023-06-22T17:22:06;23.41;38.78
64833;HTU21D;51290;45.060;38.948;2023-06-22T17:24:32;23.32;38.94
64833;HTU21D;51290;45.060;38.948;2023-06-22T17:26:58;23.26;39.07
64833;HTU21D;51290;45.060;38.948;2023-06-22T17:29:32;23.20;39.29
64833;HTU21D;51290;45.060;38.948;2023-06-22T17:32:02;23.13;39.41
64833;HTU21D;51290;45.060;38.948;2023-06-22T17:34:29;23.09;39.58
64833;HTU21D;51290;45.060;38.948;2023-06-22T17:36:57;23.03;39.65
64833;HTU21D;51290;45.060;38.948;2023-06-22T17:39:27;23.00;39.82
64833;HTU21D;51290;45.060;38.948;2023-06-22T17:41:54;22.96;39.92
64833;HTU21D;51290;45.060;38.948;2023-06-22T17:44:25;22.91;40.02
64833;HTU21D;51290;45.060;38.948;2023-06-22T17:46:56;22.86;40.08
64833;HTU21D;51290;45.060;38.948;2023-06-22T17:49:27;22.81;40.21
64833;HTU21D;51290;45.060;38.948;2023-06-22T17:51:53;22.77;40.35
64833;HTU21D;51290;45.060;38.948;2023-06-22T17:54:20;22.73;40.49
64833;HTU21D;51290;45.060;38.948;2023-06-22T17:56:49;22.71;40.54
64833;HTU21D;51290;45.060;38.948;2023-06-22T17:59:19;22.68;40.60
64833;HTU21D;51290;45.060;38.948;2023-06-22T18:01:46;22.62;40.74
64833;HTU21D;51290;45.060;38.948;2023-06-22T18:04:14;22.56;40.84
64833;HTU21D;51290;45.060;38.948;2023-06-22T18:06:43;22.51;40.94
64833;HTU21D;51290;45.060;38.948;2023-06-22T18:09:10;22.49;41.34
64833;HTU21D;51290;45.060;38.948;2023-06-22T18:11:47;22.46;41.74
64833;HTU21D;51290;45.060;38.948;2023-06-22T18:14:18;22.46;41.54
64833;HTU21D;51290;45.060;38.948;2023-06-22T18:16:46;22.42;41.60
64833;HTU21D;51290;45.060;38.948;2023-06-22T18:19:18;22.37;41.71
64833;HTU21D;51290;45.060;38.948;2023-06-22T18:21:48;22.34;41.84
64833;HTU21D;51290;45.060;38.948;2023-06-22T18:24:18;22.28;41.90
64833;HTU21D;51290;45.060;38.948;2023-06-22T18:26:45;22.24;42.04
64833;HTU21D;51290;45.060;38.948;2023-06-22T18:29:11;22.20;42.21
64833;HTU21D;51290;45.060;38.948;2023-06-22T18:31:38;22.18;42.39
64833;HTU21D;51290;45.060;38.948;2023-06-22T18:34:06;22.16;42.48
64833;HTU21D;51290;45.060;38.948;2023-06-22T18:36:45;22.12;42.59
64833;HTU21D;51290;45.060;38.948;2023-06-22T18:39:12;22.10;42.83
64833;HTU21D;51290;45.060;38.948;2023-06-22T18:41:40;22.06;42.96
64833;HTU21D;51290;45.060;38.948;2023-06-22T18:44:30;22.03;43.06
64833;HTU21D;51290;45.060;38.948;2023-06-22T18:46:59;21.94;43.08
64833;HTU21D;51290;45.060;38.948;2023-06-22T18:49:30;21.90;43.58
64833;HTU21D;51290;45.060;38.948;2023-06-22T18:54:46;21.85;43.81
64833;HTU21D;51290;45.060;38.948;2023-06-22T18:59:43;21.76;43.95
64833;HTU21D;51290;45.060;38.948;2023-06-22T19:10:22;21.53;44.70
64833;HTU21D;51290;45.060;38.948;2023-06-22T19:16:06;21.44;45.45
64833;HTU21D;51290;45.060;38.948;2023-06-22T19:18:37;21.38;45.23
64833;HTU21D;51290;45.060;38.948;2023-06-22T19:21:09;21.34;45.37
64833;HTU21D;51290;45.060;38.948;2023-06-22T19:23:37;21.28;45.45
64833;HTU21D;51290;45.060;38.948;2023-06-22T19:26:14;21.21;45.72
64833;HTU21D;51290;45.060;38.948;2023-06-22T19:28:49;21.19;45.94
64833;HTU21D;51290;45.060;38.948;2023-06-22T19:31:16;21.18;46.13
64833;HTU21D;51290;45.060;38.948;2023-06-22T19:33:43;21.16;46.37
64833;HTU21D;51290;45.060;38.948;2023-06-22T19:36:10;21.14;46.34
64833;HTU21D;51290;45.060;38.948;2023-06-22T19:38:38;21.11;46.44
64833;HTU21D;51290;45.060;38.948;2023-06-22T19:41:08;21.08;46.37
64833;HTU21D;51290;45.060;38.948;2023-06-22T19:43:34;21.06;46.42
64833;HTU21D;51290;45.060;38.948;2023-06-22T19:46:02;21.03;46.60
64833;HTU21D;51290;45.060;38.948;2023-06-22T19:48:29;20.99;46.68
64833;HTU21D;51290;45.060;38.948;2023-06-22T19:51:02;21.00;46.77
64833;HTU21D;51290;45.060;38.948;2023-06-22T19:53:28;21.00;46.86
64833;HTU21D;51290;45.060;38.948;2023-06-22T19:55:54;20.99;46.86
64833;HTU21D;51290;45.060;38.948;2023-06-22T19:58:21;20.95;46.98
64833;HTU21D;51290;45.060;38.948;2023-06-22T20:00:49;20.92;47.10
64833;HTU21D;51290;45.060;38.948;2023-06-22T20:03:30;20.86;47.17
64833;HTU21D;51290;45.060;38.948;2023-06-22T20:06:16;20.81;47.28
64833;HTU21D;51290;45.060;38.948;2023-06-22T20:08:46;20.74;47.40
64833;HTU21D;51290;45.060;38.948;2023-06-22T20:11:13;20.70;47.46
64833;HTU21D;51290;45.060;38.948;2023-06-22T20:13:49;20.65;47.37
64833;HTU21D;51290;45.060;38.948;2023-06-22T20:16:16;20.61;47.38
64833;HTU21D;51290;45.060;38.948;2023-06-22T20:18:43;20.58;47.41
64833;HTU21D;51290;45.060;38.948;2023-06-22T20:21:10;20.58;47.57
64833;HTU21D;51290;45.060;38.948;2023-06-22T20:23:36;20.62;47.41
64833;HTU21D;51290;45.060;38.948;2023-06-22T20:26:02;20.62;47.28
64833;HTU21D;51290;45.060;38.948;2023-06-22T20:28:28;20.61;47.34
64833;HTU21D;51290;45.060;38.948;2023-06-22T20:31:08;20.55;47.67
64833;HTU21D;51290;45.060;38.948;2023-06-22T20:33:35;20.51;47.34
64833;HTU21D;51290;45.060;38.948;2023-06-22T20:36:03;20.45;47.59
64833;HTU21D;51290;45.060;38.948;2023-06-22T20:38:30;20.43;47.72
64833;HTU21D;51290;45.060;38.948;2023-06-22T20:40:59;20.40;47.79
64833;HTU21D;51290;45.060;38.948;2023-06-22T20:43:25;20.36;47.96
64833;HTU21D;51290;45.060;38.948;2023-06-22T20:45:52;20.30;47.89
64833;HTU21D;51290;45.060;38.948;2023-06-22T20:48:21;20.21;47.95
64833;HTU21D;51290;45.060;38.948;2023-06-22T20:50:48;20.19;48.12
64833;HTU21D;51290;45.060;38.948;2023-06-22T20:53:14;20.17;48.12
64833;HTU21D;51290;45.060;38.948;2023-06-22T20:55:40;20.12;48.16
64833;HTU21D;51290;45.060;38.948;2023-06-22T20:58:08;20.09;48.28
64833;HTU21D;51290;45.060;38.948;2023-06-22T21:00:36;20.02;48.41
64833;HTU21D;51290;45.060;38.948;2023-06-22T21:03:08;19.95;48.46